sensor_id;sensor_type;location;lat;lon;timestamp;temperature;humidity
17092;DHT22;8661;45.700;4.880;2023-08-01T00:00:45;22.50;88.50
17092;DHT22;8661;45.700;4.880;2023-08-01T00:03:15;22.40;88.60
17092;DHT22;8661;45.700;4.880;2023-08-01T00:05:41;22.40;88.90
17092;DHT22;8661;45.700;4.880;2023-08-01T00:08:10;22.30;89.10
17092;DHT22;8661;45.700;4.880;2023-08-01T00:10:40;22.30;89.30
17092;DHT22;8661;45.700;4.880;2023-08-01T00:13:07;22.30;89.50
17092;DHT22;8661;45.700;4.880;2023-08-01T00:15:34;22.30;89.50
17092;DHT22;8661;45.700;4.880;2023-08-01T00:18:01;22.20;89.70
17092;DHT22;8661;45.700;4.880;2023-08-01T00:20:28;22.20;90.00
17092;DHT22;8661;45.700;4.880;2023-08-01T00:22:55;22.20;90.00
17092;DHT22;8661;45.700;4.880;2023-08-01T00:25:22;22.10;90.00
17092;DHT22;8661;45.700;4.880;2023-08-01T00:27:50;22.10;90.00
17092;DHT22;8661;45.700;4.880;2023-08-01T00:30:17;22.00;90.10
17092;DHT22;8661;45.700;4.880;2023-08-01T00:32:44;21.90;90.10
17092;DHT22;8661;45.700;4.880;2023-08-01T00:35:11;22.00;90.20
17092;DHT22;8661;45.700;4.880;2023-08-01T00:37:38;21.90;90.30
17092;DHT22;8661;45.700;4.880;2023-08-01T00:40:06;21.90;90.50
17092;DHT22;8661;45.700;4.880;2023-08-01T00:42:36;21.80;90.60
17092;DHT22;8661;45.700;4.880;2023-08-01T00:45:05;21.80;90.70
17092;DHT22;8661;45.700;4.880;2023-08-01T00:47:32;21.70;90.90
17092;DHT22;8661;45.700;4.880;2023-08-01T00:49:59;21.60;91.10
17092;DHT22;8661;45.700;4.880;2023-08-01T00:52:27;21.50;91.30
17092;DHT22;8661;45.700;4.880;2023-08-01T00:54:55;21.50;91.40
17092;DHT22;8661;45.700;4.880;2023-08-01T00:57:22;21.40;91.60
17092;DHT22;8661;45.700;4.880;2023-08-01T00:59:51;21.40;91.70
17092;DHT22;8661;45.700;4.880;2023-08-01T01:02:19;21.40;91.90
17092;DHT22;8661;45.700;4.880;2023-08-01T01:04:46;21.30;92.10
17092;DHT22;8661;45.700;4.880;2023-08-01T01:07:14;21.20;92.10
17092;DHT22;8661;45.700;4.880;2023-08-01T01:09:42;21.10;92.20
17092;DHT22;8661;45.700;4.880;2023-08-01T01:12:09;21.00;92.30
17092;DHT22;8661;45.700;4.880;2023-08-01T01:14:35;21.00;92.40
17092;DHT22;8661;45.700;4.880;2023-08-01T01:17:02;20.90;92.50
17092;DHT22;8661;45.700;4.880;2023-08-01T01:19:31;20.80;92.60
17092;DHT22;8661;45.700;4.880;2023-08-01T01:21:59;20.70;92.90
17092;DHT22;8661;45.700;4.880;2023-08-01T01:24:27;20.70;92.80
17092;DHT22;8661;45.700;4.880;2023-08-01T01:26:55;20.60;92.90
17092;DHT22;8661;45.700;4.880;2023-08-01T01:29:26;20.60;93.20
17092;DHT22;8661;45.700;4.880;2023-08-01T01:31:53;20.50;93.30
17092;DHT22;8661;45.700;4.880;2023-08-01T01:34:20;20.50;93.50
17092;DHT22;8661;45.700;4.880;2023-08-01T01:36:47;20.50;93.60
17092;DHT22;8661;45.700;4.880;2023-08-01T01:39:16;20.40;93.80
17092;DHT22;8661;45.700;4.880;2023-08-01T01:41:43;20.40;93.90
17092;DHT22;8661;45.700;4.880;2023-08-01T01:44:10;20.30;93.90
17092;DHT22;8661;45.700;4.880;2023-08-01T01:46:37;20.30;94.00
17092;DHT22;8661;45.700;4.880;2023-08-01T01:49:04;20.30;94.10
17092;DHT22;8661;45.700;4.880;2023-08-01T01:51:31;20.30;94.20
17092;DHT22;8661;45.700;4.880;2023-08-01T01:53:58;20.30;94.20
17092;DHT22;8661;45.700;4.880;2023-08-01T01:56:26;20.40;94.00
17092;DHT22;8661;45.700;4.880;2023-08-01T01:58:53;20.40;93.80
17092;DHT22;8661;45.700;4.880;2023-08-01T02:01:20;20.50;93.80
17092;DHT22;8661;45.700;4.880;2023-08-01T02:03:47;20.50;93.90
17092;DHT22;8661;45.700;4.880;2023-08-01T02:06:14;20.60;93.80
17092;DHT22;8661;45.700;4.880;2023-08-01T02:08:40;20.60;93.70
17092;DHT22;8661;45.700;4.880;2023-08-01T02:11:07;20.70;93.50
17092;DHT22;8661;45.700;4.880;2023-08-01T02:13:36;20.70;93.30
17092;DHT22;8661;45.700;4.880;2023-08-01T02:16:05;20.70;93.20
17092;DHT22;8661;45.700;4.880;2023-08-01T02:18:31;20.80;93.10
17092;DHT22;8661;45.700;4.880;2023-08-01T02:20:58;20.80;93.30
17092;DHT22;8661;45.700;4.880;2023-08-01T02:23:25;20.70;93.50
17092;DHT22;8661;45.700;4.880;2023-08-01T02:25:52;20.60;93.60
17092;DHT22;8661;45.700;4.880;2023-08-01T02:28:19;20.60;93.60
17092;DHT22;8661;45.700;4.880;2023-08-01T02:30:47;20.50;93.60
17092;DHT22;8661;45.700;4.880;2023-08-01T02:33:16;20.50;93.70
17092;DHT22;8661;45.700;4.880;2023-08-01T02:35:42;20.50;93.70
17092;DHT22;8661;45.700;4.880;2023-08-01T02:38:09;20.40;93.80
17092;DHT22;8661;45.700;4.880;2023-08-01T02:40:36;20.40;93.70
17092;DHT22;8661;45.700;4.880;2023-08-01T02:43:03;20.40;93.70
17092;DHT22;8661;45.700;4.880;2023-08-01T02:45:30;20.50;93.60
17092;DHT22;8661;45.700;4.880;2023-08-01T02:47:58;20.40;93.60
17092;DHT22;8661;45.700;4.880;2023-08-01T02:50:25;20.50;93.60
17092;DHT22;8661;45.700;4.880;2023-08-01T02:52:52;20.60;93.50
17092;DHT22;8661;45.700;4.880;2023-08-01T02:55:21;20.60;93.30
17092;DHT22;8661;45.700;4.880;2023-08-01T02:57:48;20.70;92.90
17092;DHT22;8661;45.700;4.880;2023-08-01T03:00:15;20.70;92.60
17092;DHT22;8661;45.700;4.880;2023-08-01T03:02:43;20.90;92.20
17092;DHT22;8661;45.700;4.880;2023-08-01T03:05:11;20.90;92.00
17092;DHT22;8661;45.700;4.880;2023-08-01T03:07:38;20.90;92.00
17092;DHT22;8661;45.700;4.880;2023-08-01T03:10:05;20.90;92.10
17092;DHT22;8661;45.700;4.880;2023-08-01T03:12:32;21.00;92.00
17092;DHT22;8661;45.700;4.880;2023-08-01T03:14:59;21.00;92.30
17092;DHT22;8661;45.700;4.880;2023-08-01T03:17:26;21.00;92.00
17092;DHT22;8661;45.700;4.880;2023-08-01T03:19:53;21.00;92.10
17092;DHT22;8661;45.700;4.880;2023-08-01T03:22:21;21.10;91.90
17092;DHT22;8661;45.700;4.880;2023-08-01T03:24:48;21.20;91.90
17092;DHT22;8661;45.700;4.880;2023-08-01T03:27:15;21.40;91.00
17092;DHT22;8661;45.700;4.880;2023-08-01T03:29:42;21.50;90.70
17092;DHT22;8661;45.700;4.880;2023-08-01T03:32:09;21.50;90.60
17092;DHT22;8661;45.700;4.880;2023-08-01T03:34:36;21.60;90.50
17092;DHT22;8661;45.700;4.880;2023-08-01T03:37:04;21.60;90.40
17092;DHT22;8661;45.700;4.880;2023-08-01T03:39:33;21.70;90.20
17092;DHT22;8661;45.700;4.880;2023-08-01T03:41:59;21.70;90.00
17092;DHT22;8661;45.700;4.880;2023-08-01T03:44:27;21.80;90.00
17092;DHT22;8661;45.700;4.880;2023-08-01T03:46:54;21.80;90.00
17092;DHT22;8661;45.700;4.880;2023-08-01T03:49:21;21.80;89.80
17092;DHT22;8661;45.700;4.880;2023-08-01T03:51:48;21.80;89.50
17092;DHT22;8661;45.700;4.880;2023-08-01T03:54:15;21.80;89.30
17092;DHT22;8661;45.700;4.880;2023-08-01T03:56:43;21.90;89.10
17092;DHT22;8661;45.700;4.880;2023-08-01T03:59:12;21.90;88.80
17092;DHT22;8661;45.700;4.880;2023-08-01T04:01:39;22.00;88.60
17092;DHT22;8661;45.700;4.880;2023-08-01T04:04:07;22.00;88.20
17092;DHT22;8661;45.700;4.880;2023-08-01T04:06:34;22.10;88.10
17092;DHT22;8661;45.700;4.880;2023-08-01T04:09:01;22.10;87.70
17092;DHT22;8661;45.700;4.880;2023-08-01T04:11:27;22.10;87.50
17092;DHT22;8661;45.700;4.880;2023-08-01T04:13:56;22.20;87.50
17092;DHT22;8661;45.700;4.880;2023-08-01T04:16:23;22.20;87.30
17092;DHT22;8661;45.700;4.880;2023-08-01T04:18:50;22.20;87.20
17092;DHT22;8661;45.700;4.880;2023-08-01T04:21:18;22.20;87.00
17092;DHT22;8661;45.700;4.880;2023-08-01T04:23:45;22.30;86.80
17092;DHT22;8661;45.700;4.880;2023-08-01T04:26:12;22.30;86.40
17092;DHT22;8661;45.700;4.880;2023-08-01T04:28:39;22.40;86.30
17092;DHT22;8661;45.700;4.880;2023-08-01T04:31:07;22.40;86.10
17092;DHT22;8661;45.700;4.880;2023-08-01T04:33:34;22.50;85.90
17092;DHT22;8661;45.700;4.880;2023-08-01T04:36:01;22.50;85.70
17092;DHT22;8661;45.700;4.880;2023-08-01T04:38:28;22.50;85.40
17092;DHT22;8661;45.700;4.880;2023-08-01T04:40:55;22.60;85.20
17092;DHT22;8661;45.700;4.880;2023-08-01T04:43:22;22.60;85.30
17092;DHT22;8661;45.700;4.880;2023-08-01T04:45:48;22.60;85.00
17092;DHT22;8661;45.700;4.880;2023-08-01T04:48:17;22.60;84.60
17092;DHT22;8661;45.700;4.880;2023-08-01T04:50:44;22.60;84.50
17092;DHT22;8661;45.700;4.880;2023-08-01T04:53:12;22.60;84.30
17092;DHT22;8661;45.700;4.880;2023-08-01T04:55:40;22.60;85.10
17092;DHT22;8661;45.700;4.880;2023-08-01T04:58:07;22.60;84.00
17092;DHT22;8661;45.700;4.880;2023-08-01T05:00:33;22.60;83.90
17092;DHT22;8661;45.700;4.880;2023-08-01T05:03:00;22.60;84.00
17092;DHT22;8661;45.700;4.880;2023-08-01T05:05:29;22.60;84.00
17092;DHT22;8661;45.700;4.880;2023-08-01T05:07:55;22.60;83.60
17092;DHT22;8661;45.700;4.880;2023-08-01T05:10:22;22.60;83.30
17092;DHT22;8661;45.700;4.880;2023-08-01T05:12:49;22.60;83.20
17092;DHT22;8661;45.700;4.880;2023-08-01T05:15:16;22.60;83.00
17092;DHT22;8661;45.700;4.880;2023-08-01T05:17:43;22.70;82.80
17092;DHT22;8661;45.700;4.880;2023-08-01T05:20:11;22.70;82.60
17092;DHT22;8661;45.700;4.880;2023-08-01T05:22:39;22.80;82.60
17092;DHT22;8661;45.700;4.880;2023-08-01T05:25:06;22.80;82.50
17092;DHT22;8661;45.700;4.880;2023-08-01T05:27:33;22.80;82.30
17092;DHT22;8661;45.700;4.880;2023-08-01T05:30:00;22.80;82.30
17092;DHT22;8661;45.700;4.880;2023-08-01T05:32:27;22.90;82.30
17092;DHT22;8661;45.700;4.880;2023-08-01T05:34:54;22.90;81.90
17092;DHT22;8661;45.700;4.880;2023-08-01T05:37:21;23.00;81.90
17092;DHT22;8661;45.700;4.880;2023-08-01T05:39:50;22.90;81.70
17092;DHT22;8661;45.700;4.880;2023-08-01T05:42:16;23.00;81.80
17092;DHT22;8661;45.700;4.880;2023-08-01T05:44:43;23.00;81.70
17092;DHT22;8661;45.700;4.880;2023-08-01T05:47:10;23.00;81.50
17092;DHT22;8661;45.700;4.880;2023-08-01T05:49:37;23.10;81.80
17092;DHT22;8661;45.700;4.880;2023-08-01T05:52:05;23.10;81.40
17092;DHT22;8661;45.700;4.880;2023-08-01T05:54:32;23.10;81.30
17092;DHT22;8661;45.700;4.880;2023-08-01T05:57:00;23.10;81.20
17092;DHT22;8661;45.700;4.880;2023-08-01T05:59:27;23.10;81.00
17092;DHT22;8661;45.700;4.880;2023-08-01T06:01:54;23.10;81.00
17092;DHT22;8661;45.700;4.880;2023-08-01T06:04:21;23.10;81.10
17092;DHT22;8661;45.700;4.880;2023-08-01T06:06:48;23.10;81.10
17092;DHT22;8661;45.700;4.880;2023-08-01T06:09:15;23.10;80.90
17092;DHT22;8661;45.700;4.880;2023-08-01T06:11:45;23.10;80.90
17092;DHT22;8661;45.700;4.880;2023-08-01T06:14:13;23.10;81.20
17092;DHT22;8661;45.700;4.880;2023-08-01T06:16:40;23.10;80.90
17092;DHT22;8661;45.700;4.880;2023-08-01T06:19:07;23.10;81.10
17092;DHT22;8661;45.700;4.880;2023-08-01T06:21:34;23.10;80.90
17092;DHT22;8661;45.700;4.880;2023-08-01T06:24:01;23.10;80.80
17092;DHT22;8661;45.700;4.880;2023-08-01T06:26:28;23.20;80.70
17092;DHT22;8661;45.700;4.880;2023-08-01T06:28:54;23.20;80.70
17092;DHT22;8661;45.700;4.880;2023-08-01T06:31:23;23.20;80.50
17092;DHT22;8661;45.700;4.880;2023-08-01T06:33:50;23.20;80.30
17092;DHT22;8661;45.700;4.880;2023-08-01T06:36:17;23.30;80.20
17092;DHT22;8661;45.700;4.880;2023-08-01T06:38:43;23.40;80.20
17092;DHT22;8661;45.700;4.880;2023-08-01T06:41:11;23.40;80.20
17092;DHT22;8661;45.700;4.880;2023-08-01T06:43:38;23.50;80.20
17092;DHT22;8661;45.700;4.880;2023-08-01T06:46:05;23.60;79.80
17092;DHT22;8661;45.700;4.880;2023-08-01T06:48:34;23.70;79.70
17092;DHT22;8661;45.700;4.880;2023-08-01T06:51:01;23.70;79.10
17092;DHT22;8661;45.700;4.880;2023-08-01T06:53:28;23.80;79.10
17092;DHT22;8661;45.700;4.880;2023-08-01T06:55:55;23.80;78.80
17092;DHT22;8661;45.700;4.880;2023-08-01T06:58:22;23.90;79.60
17092;DHT22;8661;45.700;4.880;2023-08-01T07:00:48;23.90;78.40
17092;DHT22;8661;45.700;4.880;2023-08-01T07:03:15;24.00;78.40
17092;DHT22;8661;45.700;4.880;2023-08-01T07:05:43;24.00;78.00
17092;DHT22;8661;45.700;4.880;2023-08-01T07:08:10;24.10;77.90
17092;DHT22;8661;45.700;4.880;2023-08-01T07:10:37;24.20;77.80
17092;DHT22;8661;45.700;4.880;2023-08-01T07:13:04;24.30;77.40
17092;DHT22;8661;45.700;4.880;2023-08-01T07:15:31;24.40;77.30
17092;DHT22;8661;45.700;4.880;2023-08-01T07:17:59;24.40;76.90
17092;DHT22;8661;45.700;4.880;2023-08-01T07:20:26;24.40;76.50
17092;DHT22;8661;45.700;4.880;2023-08-01T07:22:54;24.40;76.10
17092;DHT22;8661;45.700;4.880;2023-08-01T07:25:21;24.60;75.90
17092;DHT22;8661;45.700;4.880;2023-08-01T07:27:48;24.60;75.40
17092;DHT22;8661;45.700;4.880;2023-08-01T07:30:15;24.70;75.10
17092;DHT22;8661;45.700;4.880;2023-08-01T07:32:41;24.80;74.80
17092;DHT22;8661;45.700;4.880;2023-08-01T07:35:09;24.80;74.80
17092;DHT22;8661;45.700;4.880;2023-08-01T07:37:36;24.90;74.80
17092;DHT22;8661;45.700;4.880;2023-08-01T07:40:06;25.00;74.90
17092;DHT22;8661;45.700;4.880;2023-08-01T07:42:33;25.10;75.10
17092;DHT22;8661;45.700;4.880;2023-08-01T07:45:00;25.10;74.90
17092;DHT22;8661;45.700;4.880;2023-08-01T07:47:27;25.20;74.90
17092;DHT22;8661;45.700;4.880;2023-08-01T07:49:54;25.50;74.40
17092;DHT22;8661;45.700;4.880;2023-08-01T07:52:21;25.60;73.30
17092;DHT22;8661;45.700;4.880;2023-08-01T07:54:48;25.70;72.60
17092;DHT22;8661;45.700;4.880;2023-08-01T07:57:16;25.70;72.30
17092;DHT22;8661;45.700;4.880;2023-08-01T07:59:43;25.90;71.90
17092;DHT22;8661;45.700;4.880;2023-08-01T08:02:09;26.00;71.80
17092;DHT22;8661;45.700;4.880;2023-08-01T08:04:36;26.30;71.30
17092;DHT22;8661;45.700;4.880;2023-08-01T08:07:04;26.40;70.80
17092;DHT22;8661;45.700;4.880;2023-08-01T08:09:31;26.40;70.60
17092;DHT22;8661;45.700;4.880;2023-08-01T08:11:58;26.30;71.50
17092;DHT22;8661;45.700;4.880;2023-08-01T08:14:26;26.30;70.90
17092;DHT22;8661;45.700;4.880;2023-08-01T08:16:53;26.10;71.10
17092;DHT22;8661;45.700;4.880;2023-08-01T08:19:20;26.30;71.30
17092;DHT22;8661;45.700;4.880;2023-08-01T08:21:49;26.50;70.90
17092;DHT22;8661;45.700;4.880;2023-08-01T08:24:16;26.80;70.60
17092;DHT22;8661;45.700;4.880;2023-08-01T08:26:43;27.00;70.20
17092;DHT22;8661;45.700;4.880;2023-08-01T08:29:11;27.30;70.20
17092;DHT22;8661;45.700;4.880;2023-08-01T08:31:39;27.50;70.00
17092;DHT22;8661;45.700;4.880;2023-08-01T08:34:06;27.60;69.90
17092;DHT22;8661;45.700;4.880;2023-08-01T08:36:33;27.50;70.30
17092;DHT22;8661;45.700;4.880;2023-08-01T08:39:00;27.50;71.00
17092;DHT22;8661;45.700;4.880;2023-08-01T08:41:30;27.40;71.00
17092;DHT22;8661;45.700;4.880;2023-08-01T08:43:59;27.50;71.80
17092;DHT22;8661;45.700;4.880;2023-08-01T08:46:29;27.40;71.20
17092;DHT22;8661;45.700;4.880;2023-08-01T08:48:58;27.50;71.30
17092;DHT22;8661;45.700;4.880;2023-08-01T08:51:26;27.50;71.20
17092;DHT22;8661;45.700;4.880;2023-08-01T08:53:56;27.70;71.00
17092;DHT22;8661;45.700;4.880;2023-08-01T08:56:23;28.20;70.80
17092;DHT22;8661;45.700;4.880;2023-08-01T08:58:50;28.50;70.00
17092;DHT22;8661;45.700;4.880;2023-08-01T09:01:18;28.40;70.10
17092;DHT22;8661;45.700;4.880;2023-08-01T09:03:45;28.30;70.10
17092;DHT22;8661;45.700;4.880;2023-08-01T09:06:15;28.30;70.40
17092;DHT22;8661;45.700;4.880;2023-08-01T09:08:49;28.60;70.50
17092;DHT22;8661;45.700;4.880;2023-08-01T09:11:17;28.90;70.70
17092;DHT22;8661;45.700;4.880;2023-08-01T09:13:44;28.90;70.60
17092;DHT22;8661;45.700;4.880;2023-08-01T09:16:12;28.70;70.70
17092;DHT22;8661;45.700;4.880;2023-08-01T09:18:47;28.70;71.70
17092;DHT22;8661;45.700;4.880;2023-08-01T09:21:18;28.60;72.00
17092;DHT22;8661;45.700;4.880;2023-08-01T09:23:44;28.20;73.10
17092;DHT22;8661;45.700;4.880;2023-08-01T09:26:15;27.90;73.50
17092;DHT22;8661;45.700;4.880;2023-08-01T09:28:42;27.90;73.80
17092;DHT22;8661;45.700;4.880;2023-08-01T09:31:10;27.80;73.90
17092;DHT22;8661;45.700;4.880;2023-08-01T09:33:38;28.00;74.00
17092;DHT22;8661;45.700;4.880;2023-08-01T09:36:07;27.90;74.30
17092;DHT22;8661;45.700;4.880;2023-08-01T09:38:36;27.80;73.90
17092;DHT22;8661;45.700;4.880;2023-08-01T09:41:03;27.90;73.30
17092;DHT22;8661;45.700;4.880;2023-08-01T09:43:34;28.00;72.30
17092;DHT22;8661;45.700;4.880;2023-08-01T09:46:01;28.00;71.60
17092;DHT22;8661;45.700;4.880;2023-08-01T09:48:29;27.90;71.50
17092;DHT22;8661;45.700;4.880;2023-08-01T09:51:06;27.90;71.60
17092;DHT22;8661;45.700;4.880;2023-08-01T09:53:35;27.80;71.10
17092;DHT22;8661;45.700;4.880;2023-08-01T09:56:03;27.80;71.60
17092;DHT22;8661;45.700;4.880;2023-08-01T09:58:33;28.00;71.80
17092;DHT22;8661;45.700;4.880;2023-08-01T10:01:01;28.10;71.50
17092;DHT22;8661;45.700;4.880;2023-08-01T10:03:28;28.20;71.70
17092;DHT22;8661;45.700;4.880;2023-08-01T10:05:55;27.80;73.30
17092;DHT22;8661;45.700;4.880;2023-08-01T10:08:22;27.40;74.60
17092;DHT22;8661;45.700;4.880;2023-08-01T10:10:51;27.30;76.00
17092;DHT22;8661;45.700;4.880;2023-08-01T10:13:20;27.30;76.80
17092;DHT22;8661;45.700;4.880;2023-08-01T10:15:48;27.20;76.90
17092;DHT22;8661;45.700;4.880;2023-08-01T10:18:17;27.40;77.30
17092;DHT22;8661;45.700;4.880;2023-08-01T10:20:44;28.30;76.10
17092;DHT22;8661;45.700;4.880;2023-08-01T10:23:12;29.60;74.40
17092;DHT22;8661;45.700;4.880;2023-08-01T10:25:39;30.40;71.20
17092;DHT22;8661;45.700;4.880;2023-08-01T10:28:08;30.90;70.30
17092;DHT22;8661;45.700;4.880;2023-08-01T10:30:35;31.40;69.50
17092;DHT22;8661;45.700;4.880;2023-08-01T10:33:02;32.20;67.30
17092;DHT22;8661;45.700;4.880;2023-08-01T10:35:35;32.80;66.20
17092;DHT22;8661;45.700;4.880;2023-08-01T10:38:11;34.20;63.60
17092;DHT22;8661;45.700;4.880;2023-08-01T10:40:39;34.80;63.40
17092;DHT22;8661;45.700;4.880;2023-08-01T10:43:20;35.20;61.70
17092;DHT22;8661;45.700;4.880;2023-08-01T10:45:47;35.50;58.60
17092;DHT22;8661;45.700;4.880;2023-08-01T10:48:16;35.60;59.90
17092;DHT22;8661;45.700;4.880;2023-08-01T10:50:54;36.00;59.30
17092;DHT22;8661;45.700;4.880;2023-08-01T10:53:21;36.50;56.70
17092;DHT22;8661;45.700;4.880;2023-08-01T10:55:48;36.60;57.00
17092;DHT22;8661;45.700;4.880;2023-08-01T10:58:15;36.50;57.30
17092;DHT22;8661;45.700;4.880;2023-08-01T11:00:44;36.50;57.00
17092;DHT22;8661;45.700;4.880;2023-08-01T11:03:11;35.70;56.90
17092;DHT22;8661;45.700;4.880;2023-08-01T11:05:38;35.20;58.40
17092;DHT22;8661;45.700;4.880;2023-08-01T11:08:05;35.20;57.70
17092;DHT22;8661;45.700;4.880;2023-08-01T11:10:32;35.50;57.10
17092;DHT22;8661;45.700;4.880;2023-08-01T11:12:59;35.50;56.50
17092;DHT22;8661;45.700;4.880;2023-08-01T11:15:26;35.60;56.50
17092;DHT22;8661;45.700;4.880;2023-08-01T11:17:55;36.00;55.50
17092;DHT22;8661;45.700;4.880;2023-08-01T11:20:24;36.20;55.30
17092;DHT22;8661;45.700;4.880;2023-08-01T11:22:53;36.40;55.10
17092;DHT22;8661;45.700;4.880;2023-08-01T11:25:32;36.50;54.60
17092;DHT22;8661;45.700;4.880;2023-08-01T11:28:03;36.10;54.10
17092;DHT22;8661;45.700;4.880;2023-08-01T11:30:30;35.70;55.10
17092;DHT22;8661;45.700;4.880;2023-08-01T11:32:59;35.20;55.70
17092;DHT22;8661;45.700;4.880;2023-08-01T11:35:28;35.10;55.40
17092;DHT22;8661;45.700;4.880;2023-08-01T11:37:56;34.70;55.80
17092;DHT22;8661;45.700;4.880;2023-08-01T11:40:24;34.00;56.40
17092;DHT22;8661;45.700;4.880;2023-08-01T11:42:57;33.30;57.30
17092;DHT22;8661;45.700;4.880;2023-08-01T11:45:24;33.00;58.00
17092;DHT22;8661;45.700;4.880;2023-08-01T11:47:52;32.70;59.00
17092;DHT22;8661;45.700;4.880;2023-08-01T11:50:23;32.50;58.70
17092;DHT22;8661;45.700;4.880;2023-08-01T11:52:50;32.20;58.80
17092;DHT22;8661;45.700;4.880;2023-08-01T11:55:22;32.40;58.80
17092;DHT22;8661;45.700;4.880;2023-08-01T11:57:56;32.70;58.40
17092;DHT22;8661;45.700;4.880;2023-08-01T12:00:25;33.40;58.50
17092;DHT22;8661;45.700;4.880;2023-08-01T12:03:03;33.30;57.80
17092;DHT22;8661;45.700;4.880;2023-08-01T12:05:32;32.60;57.90
17092;DHT22;8661;45.700;4.880;2023-08-01T12:08:08;32.20;59.00
17092;DHT22;8661;45.700;4.880;2023-08-01T12:10:39;32.50;59.80
17092;DHT22;8661;45.700;4.880;2023-08-01T12:13:18;32.60;59.20
17092;DHT22;8661;45.700;4.880;2023-08-01T12:15:46;32.50;58.90
17092;DHT22;8661;45.700;4.880;2023-08-01T12:18:20;32.30;59.10
17092;DHT22;8661;45.700;4.880;2023-08-01T12:20:48;32.10;59.50
17092;DHT22;8661;45.700;4.880;2023-08-01T12:23:15;31.90;59.80
17092;DHT22;8661;45.700;4.880;2023-08-01T12:25:42;31.50;60.20
17092;DHT22;8661;45.700;4.880;2023-08-01T12:28:09;31.20;60.60
17092;DHT22;8661;45.700;4.880;2023-08-01T12:30:38;30.70;62.80
17092;DHT22;8661;45.700;4.880;2023-08-01T12:33:05;30.40;62.80
17092;DHT22;8661;45.700;4.880;2023-08-01T12:35:32;30.40;63.00
17092;DHT22;8661;45.700;4.880;2023-08-01T12:38:01;30.30;63.80
17092;DHT22;8661;45.700;4.880;2023-08-01T12:40:27;30.50;63.80
17092;DHT22;8661;45.700;4.880;2023-08-01T12:42:54;30.90;63.90
17092;DHT22;8661;45.700;4.880;2023-08-01T12:45:21;31.40;63.30
17092;DHT22;8661;45.700;4.880;2023-08-01T12:47:49;32.70;62.30
17092;DHT22;8661;45.700;4.880;2023-08-01T12:50:16;34.30;61.60
17092;DHT22;8661;45.700;4.880;2023-08-01T12:52:43;35.00;59.10
17092;DHT22;8661;45.700;4.880;2023-08-01T12:55:11;35.50;57.00
17092;DHT22;8661;45.700;4.880;2023-08-01T12:57:38;35.80;56.20
17092;DHT22;8661;45.700;4.880;2023-08-01T13:00:06;35.50;56.20
17092;DHT22;8661;45.700;4.880;2023-08-01T13:02:35;35.70;57.10
17092;DHT22;8661;45.700;4.880;2023-08-01T13:05:02;36.20;55.60
17092;DHT22;8661;45.700;4.880;2023-08-01T13:07:29;35.70;55.70
17092;DHT22;8661;45.700;4.880;2023-08-01T13:09:58;35.00;56.40
17092;DHT22;8661;45.700;4.880;2023-08-01T13:12:26;34.70;57.00
17092;DHT22;8661;45.700;4.880;2023-08-01T13:14:53;34.50;56.90
17092;DHT22;8661;45.700;4.880;2023-08-01T13:17:20;34.20;57.50
17092;DHT22;8661;45.700;4.880;2023-08-01T13:19:47;34.10;57.60
17092;DHT22;8661;45.700;4.880;2023-08-01T13:22:14;34.90;57.70
17092;DHT22;8661;45.700;4.880;2023-08-01T13:24:41;35.70;56.00
17092;DHT22;8661;45.700;4.880;2023-08-01T13:27:08;35.50;55.40
17092;DHT22;8661;45.700;4.880;2023-08-01T13:29:36;35.30;55.70
17092;DHT22;8661;45.700;4.880;2023-08-01T13:32:06;34.70;56.50
17092;DHT22;8661;45.700;4.880;2023-08-01T13:34:33;34.20;56.90
17092;DHT22;8661;45.700;4.880;2023-08-01T13:37:00;34.10;57.40
17092;DHT22;8661;45.700;4.880;2023-08-01T13:39:27;33.90;57.10
17092;DHT22;8661;45.700;4.880;2023-08-01T13:41:53;33.20;58.10
17092;DHT22;8661;45.700;4.880;2023-08-01T13:44:20;32.70;58.50
17092;DHT22;8661;45.700;4.880;2023-08-01T13:46:49;32.60;58.90
17092;DHT22;8661;45.700;4.880;2023-08-01T13:49:15;32.70;58.70
17092;DHT22;8661;45.700;4.880;2023-08-01T13:51:42;32.80;59.10
17092;DHT22;8661;45.700;4.880;2023-08-01T13:54:09;33.00;58.80
17092;DHT22;8661;45.700;4.880;2023-08-01T13:56:36;32.80;59.00
17092;DHT22;8661;45.700;4.880;2023-08-01T13:59:03;32.70;59.00
17092;DHT22;8661;45.700;4.880;2023-08-01T14:01:30;33.40;59.30
17092;DHT22;8661;45.700;4.880;2023-08-01T14:03:58;33.40;58.60
17092;DHT22;8661;45.700;4.880;2023-08-01T14:06:25;33.80;58.80
17092;DHT22;8661;45.700;4.880;2023-08-01T14:08:52;34.50;57.90
17092;DHT22;8661;45.700;4.880;2023-08-01T14:11:19;35.10;57.40
17092;DHT22;8661;45.700;4.880;2023-08-01T14:13:45;35.40;56.60
17092;DHT22;8661;45.700;4.880;2023-08-01T14:16:12;35.40;56.50
17092;DHT22;8661;45.700;4.880;2023-08-01T14:18:39;35.30;56.60
17092;DHT22;8661;45.700;4.880;2023-08-01T14:21:09;34.90;56.90
17092;DHT22;8661;45.700;4.880;2023-08-01T14:23:36;35.00;57.20
17092;DHT22;8661;45.700;4.880;2023-08-01T14:26:04;35.60;56.40
17092;DHT22;8661;45.700;4.880;2023-08-01T14:28:30;36.10;55.70
17092;DHT22;8661;45.700;4.880;2023-08-01T14:31:00;35.20;56.10
17092;DHT22;8661;45.700;4.880;2023-08-01T14:33:27;35.30;56.50
17092;DHT22;8661;45.700;4.880;2023-08-01T14:35:55;36.10;55.40
17092;DHT22;8661;45.700;4.880;2023-08-01T14:38:23;36.10;54.50
17092;DHT22;8661;45.700;4.880;2023-08-01T14:40:51;36.10;54.70
17092;DHT22;8661;45.700;4.880;2023-08-01T14:43:18;36.10;54.60
17092;DHT22;8661;45.700;4.880;2023-08-01T14:45:45;36.10;54.50
17092;DHT22;8661;45.700;4.880;2023-08-01T14:48:12;35.50;55.10
17092;DHT22;8661;45.700;4.880;2023-08-01T14:50:39;35.70;54.90
17092;DHT22;8661;45.700;4.880;2023-08-01T14:53:06;35.60;54.40
17092;DHT22;8661;45.700;4.880;2023-08-01T14:55:34;35.70;53.60
17092;DHT22;8661;45.700;4.880;2023-08-01T14:58:01;35.50;53.70
17092;DHT22;8661;45.700;4.880;2023-08-01T15:00:29;35.50;53.40
17092;DHT22;8661;45.700;4.880;2023-08-01T15:02:55;35.40;53.80
17092;DHT22;8661;45.700;4.880;2023-08-01T15:05:24;35.40;54.30
17092;DHT22;8661;45.700;4.880;2023-08-01T15:07:51;35.50;54.90
17092;DHT22;8661;45.700;4.880;2023-08-01T15:10:18;35.70;54.60
17092;DHT22;8661;45.700;4.880;2023-08-01T15:12:46;35.60;54.50
17092;DHT22;8661;45.700;4.880;2023-08-01T15:15:13;35.70;54.70
17092;DHT22;8661;45.700;4.880;2023-08-01T15:17:40;35.60;54.20
17092;DHT22;8661;45.700;4.880;2023-08-01T15:20:07;35.40;54.00
17092;DHT22;8661;45.700;4.880;2023-08-01T15:22:35;35.10;54.90
17092;DHT22;8661;45.700;4.880;2023-08-01T15:25:02;35.10;55.00
17092;DHT22;8661;45.700;4.880;2023-08-01T15:27:29;34.90;54.70
17092;DHT22;8661;45.700;4.880;2023-08-01T15:29:57;34.70;55.00
17092;DHT22;8661;45.700;4.880;2023-08-01T15:32:24;34.20;56.00
17092;DHT22;8661;45.700;4.880;2023-08-01T15:34:51;33.70;55.90
17092;DHT22;8661;45.700;4.880;2023-08-01T15:37:18;33.30;56.60
17092;DHT22;8661;45.700;4.880;2023-08-01T15:39:44;33.00;57.40
17092;DHT22;8661;45.700;4.880;2023-08-01T15:42:11;32.80;58.00
17092;DHT22;8661;45.700;4.880;2023-08-01T15:44:38;32.60;58.40
17092;DHT22;8661;45.700;4.880;2023-08-01T15:47:07;32.30;59.20